Terminal Aerodrome Forecast
Issued by NWS Buffalo, NY

Home | Current Version | Previous Version | Text Only | Print | Product List | Glossary On
Versions: 1 2 3 4 5 6 7 8 9 10 11 12 13 14 15 16 17 18 19 20 21 22 23
000
FTUS41 KBUF 210200 AAA
TAFBUF
TAF AMD
KBUF 210230Z 2102/2124 VRB04KT P6SM SCT150
     FM210400 19008KT P6SM SCT150
     FM211400 22012KT P6SM SCT130=

USA.gov is the U.S. government's official web portal to all federal, state and local government web resources and services.